Time;durP1;ratioP1;P1;durP2;ratioP2;P2;SDS_P1;SDS_P2;PMS_P1;PMS_P2;Temp;Humidity;BMP_temperature;BMP_pressure;BME280_temperature;BME280_humidity;BME280_pressure;Samples;Min_cycle;Max_cycle;Signal;HPM_P1;HPM_P2
2022/09/02 00:01:03;;;;;;;1.15;0.60;;;;;;;;;;5008759;28;20186;-73
2022/09/02 00:03:30;;;;;;;1.52;0.50;;;;;;;;;;5010168;28;20187;-72
2022/09/02 00:05:55;;;;;;;2.25;1.00;;;;;;;;;;5001533;28;20199;-73
2022/09/02 00:08:20;;;;;;;1.27;0.82;;;;;;;;;;5006078;28;20198;-73
2022/09/02 00:10:45;;;;;;;1.05;0.63;;;;;;;;;;5010724;28;20653;-72
2022/09/02 00:13:13;;;;;;;0.63;0.63;;;;;;;;;;5013553;28;20337;-73
2022/09/02 00:15:39;;;;;;;1.20;0.60;;;;;;;;;;5013482;28;20191;-73
2022/09/02 00:18:05;;;;;;;3.08;0.70;;;;;;;;;;4995911;28;20178;-73
2022/09/02 00:20:31;;;;;;;2.05;0.70;;;;;;;;;;5013800;28;20175;-73
2022/09/02 00:22:56;;;;;;;2.75;0.80;;;;;;;;;;5012266;28;20198;-73
2022/09/02 00:25:22;;;;;;;2.40;0.73;;;;;;;;;;5014338;28;20693;-73
2022/09/02 00:27:47;;;;;;;0.90;0.60;;;;;;;;;;5012423;28;20181;-73
2022/09/02 00:30:13;;;;;;;1.40;0.65;;;;;;;;;;5005059;28;20676;-73
2022/09/02 00:32:38;;;;;;;2.13;0.90;;;;;;;;;;5012796;28;20202;-73
2022/09/02 00:35:04;;;;;;;2.90;0.73;;;;;;;;;;5012422;28;20201;-73
2022/09/02 00:37:29;;;;;;;2.20;1.80;;;;;;;;;;4994983;28;20187;-73
2022/09/02 00:39:55;;;;;;;0.95;0.70;;;;;;;;;;5011485;28;20258;-73
2022/09/02 00:42:20;;;;;;;0.88;0.73;;;;;;;;;;5012094;28;20580;-73
2022/09/02 00:44:46;;;;;;;2.00;0.70;;;;;;;;;;5012260;28;20684;-73
2022/09/02 00:47:11;;;;;;;1.13;0.65;;;;;;;;;;5011411;28;20179;-73
2022/09/02 00:49:38;;;;;;;0.88;0.60;;;;;;;;;;5009966;28;20233;-73
2022/09/02 00:52:05;;;;;;;2.65;0.73;;;;;;;;;;5012099;28;20206;-73
2022/09/02 00:54:33;;;;;;;2.13;0.65;;;;;;;;;;5013072;28;20213;-73
2022/09/02 00:56:59;;;;;;;0.70;0.65;;;;;;;;;;5005052;28;20182;-73
2022/09/02 00:59:42;;;;;;;0.75;0.75;;;;;;;;;;5013011;28;20197;-73
2022/09/02 01:02:08;;;;;;;1.75;0.60;;;;;;;;;;5007803;28;20530;-73
2022/09/02 01:04:34;;;;;;;0.50;0.43;;;;;;;;;;5011595;28;20294;-73
2022/09/02 01:06:59;;;;;;;1.75;0.70;;;;;;;;;;5012295;28;20266;-73
2022/09/02 01:09:24;;;;;;;1.15;0.63;;;;;;;;;;5011872;28;20182;-73
2022/09/02 01:11:53;;;;;;;0.90;0.60;;;;;;;;;;5012248;28;20680;-73
2022/09/02 01:14:19;;;;;;;1.25;0.77;;;;;;;;;;5017832;28;20256;-74
2022/09/02 01:16:46;;;;;;;1.58;0.47;;;;;;;;;;5011689;28;20736;-73
2022/09/02 01:19:25;;;;;;;0.60;0.50;;;;;;;;;;5011315;28;20178;-73
2022/09/02 01:21:54;;;;;;;1.48;0.73;;;;;;;;;;5016328;28;20539;-73
2022/09/02 01:24:21;;;;;;;2.42;0.75;;;;;;;;;;4994292;28;20242;-73
2022/09/02 01:26:46;;;;;;;1.38;0.80;;;;;;;;;;4995674;28;20182;-73
2022/09/02 01:29:12;;;;;;;1.95;0.70;;;;;;;;;;5011449;28;20187;-74
2022/09/02 01:31:37;;;;;;;0.82;0.80;;;;;;;;;;5009314;28;20187;-73
2022/09/02 01:34:05;;;;;;;1.15;0.70;;;;;;;;;;5008529;28;20198;-73
2022/09/02 01:36:30;;;;;;;0.73;0.70;;;;;;;;;;5012112;28;20186;-74
2022/09/02 01:38:55;;;;;;;0.75;0.63;;;;;;;;;;5011365;28;20514;-73
2022/09/02 01:41:21;;;;;;;1.08;0.70;;;;;;;;;;5010010;28;20239;-73
2022/09/02 01:43:46;;;;;;;2.63;0.90;;;;;;;;;;5009595;28;20258;-74
2022/09/02 01:46:11;;;;;;;1.25;0.57;;;;;;;;;;5011997;28;20203;-73
2022/09/02 01:48:36;;;;;;;0.82;0.70;;;;;;;;;;5011593;28;20194;-73
2022/09/02 01:51:02;;;;;;;1.15;0.93;;;;;;;;;;5010627;28;20645;-74
2022/09/02 01:53:28;;;;;;;3.75;0.75;;;;;;;;;;5009702;28;20217;-73
2022/09/02 01:55:53;;;;;;;0.93;0.60;;;;;;;;;;5013404;28;20195;-73
2022/09/02 01:58:19;;;;;;;1.30;0.70;;;;;;;;;;5011413;28;20210;-74
2022/09/02 02:00:44;;;;;;;2.78;1.38;;;;;;;;;;5009059;28;20178;-74
2022/09/02 02:03:09;;;;;;;1.48;0.82;;;;;;;;;;5012137;28;20194;-74
2022/09/02 02:05:35;;;;;;;1.00;0.60;;;;;;;;;;5012780;28;20210;-74
2022/09/02 02:08:00;;;;;;;1.00;0.88;;;;;;;;;;5010516;28;20217;-73
2022/09/02 02:10:25;;;;;;;1.95;0.60;;;;;;;;;;4995857;28;20183;-74
2022/09/02 02:12:51;;;;;;;2.50;1.13;;;;;;;;;;5014661;28;20202;-74
2022/09/02 02:15:17;;;;;;;1.10;0.93;;;;;;;;;;5011024;28;20210;-74
2022/09/02 02:17:42;;;;;;;2.25;0.70;;;;;;;;;;5003716;28;20186;-74
2022/09/02 02:20:08;;;;;;;1.30;0.77;;;;;;;;;;5009373;28;20171;-74
2022/09/02 02:22:34;;;;;;;1.33;0.60;;;;;;;;;;5010877;28;20190;-73
2022/09/02 02:24:59;;;;;;;0.77;0.77;;;;;;;;;;5010696;28;20328;-74
2022/09/02 02:27:24;;;;;;;0.80;0.80;;;;;;;;;;5010375;28;20206;-73
2022/09/02 02:29:49;;;;;;;1.20;0.70;;;;;;;;;;5006053;28;20275;-74
2022/09/02 02:32:17;;;;;;;1.20;0.75;;;;;;;;;;5008831;28;20222;-74
2022/09/02 02:34:42;;;;;;;0.90;0.70;;;;;;;;;;4993228;28;20198;-74
2022/09/02 02:37:11;;;;;;;0.95;0.82;;;;;;;;;;5008783;28;20175;-73
2022/09/02 02:39:36;;;;;;;0.73;0.70;;;;;;;;;;5009654;28;20254;-74
2022/09/02 02:42:01;;;;;;;0.60;0.60;;;;;;;;;;5008482;28;20290;-74
2022/09/02 02:44:28;;;;;;;3.30;0.80;;;;;;;;;;5009698;28;20206;-74
2022/09/02 02:46:54;;;;;;;2.38;0.65;;;;;;;;;;4993793;28;20175;-74
2022/09/02 02:49:19;;;;;;;2.38;0.93;;;;;;;;;;5012000;28;20670;-74
2022/09/02 02:51:44;;;;;;;1.25;0.60;;;;;;;;;;5011349;28;20175;-74
2022/09/02 02:54:11;;;;;;;1.58;0.70;;;;;;;;;;5009132;28;20575;-74
2022/09/02 02:56:36;;;;;;;0.85;0.75;;;;;;;;;;5010476;28;20649;-73
2022/09/02 02:59:02;;;;;;;0.95;0.70;;;;;;;;;;5010107;28;20237;-74
2022/09/02 03:01:28;;;;;;;1.20;0.80;;;;;;;;;;5009879;28;20253;-74
2022/09/02 03:03:54;;;;;;;2.85;0.80;;;;;;;;;;5010781;28;20175;-73
2022/09/02 03:06:19;;;;;;;1.40;1.08;;;;;;;;;;5009604;28;20190;-73
2022/09/02 03:08:47;;;;;;;3.08;0.98;;;;;;;;;;5010867;28;20644;-72
2022/09/02 03:11:13;;;;;;;0.70;0.60;;;;;;;;;;5005596;28;20201;-73
2022/09/02 03:13:38;;;;;;;2.42;0.90;;;;;;;;;;5009601;28;20232;-72
2022/09/02 03:16:05;;;;;;;3.00;0.85;;;;;;;;;;5011054;28;20167;-72
2022/09/02 03:18:30;;;;;;;0.73;0.60;;;;;;;;;;5009087;28;20598;-72
2022/09/02 03:20:55;;;;;;;1.35;0.60;;;;;;;;;;5009530;28;20175;-72
2022/09/02 03:23:20;;;;;;;1.10;0.70;;;;;;;;;;5010262;28;20360;-72
2022/09/02 03:25:46;;;;;;;1.15;0.55;;;;;;;;;;5010240;28;20289;-74
2022/09/02 03:28:11;;;;;;;1.38;0.85;;;;;;;;;;5004507;28;20205;-74
2022/09/02 03:30:37;;;;;;;2.28;1.10;;;;;;;;;;5008730;28;20206;-74
2022/09/02 03:33:04;;;;;;;1.45;0.90;;;;;;;;;;4990640;28;20199;-74
2022/09/02 03:35:30;;;;;;;1.77;1.00;;;;;;;;;;5009518;28;20203;-72
2022/09/02 03:37:55;;;;;;;1.48;0.90;;;;;;;;;;5008419;28;20230;-74
2022/09/02 03:40:23;;;;;;;0.85;0.70;;;;;;;;;;5010061;28;20179;-72
2022/09/02 03:42:48;;;;;;;0.63;0.60;;;;;;;;;;5009933;28;20175;-74
2022/09/02 03:45:14;;;;;;;1.00;0.65;;;;;;;;;;5009602;28;20374;-74
2022/09/02 03:47:44;;;;;;;1.30;0.70;;;;;;;;;;5011542;28;20183;-74
2022/09/02 03:50:10;;;;;;;1.02;0.82;;;;;;;;;;5013184;28;20183;-74
2022/09/02 03:52:36;;;;;;;4.30;0.82;;;;;;;;;;5012515;28;20249;-73
2022/09/02 03:55:01;;;;;;;2.00;0.70;;;;;;;;;;5013842;28;20191;-74
2022/09/02 03:57:26;;;;;;;0.95;0.80;;;;;;;;;;5012853;28;20175;-74
2022/09/02 03:59:51;;;;;;;1.00;0.77;;;;;;;;;;5014427;28;20656;-75
2022/09/02 04:02:17;;;;;;;2.20;1.05;;;;;;;;;;5013368;28;20175;-75
2022/09/02 04:04:42;;;;;;;1.20;0.73;;;;;;;;;;5014691;28;20218;-72
2022/09/02 04:07:08;;;;;;;1.95;0.93;;;;;;;;;;5009471;28;20528;-74
2022/09/02 04:09:33;;;;;;;1.08;0.80;;;;;;;;;;5011097;28;20222;-74
2022/09/02 04:11:58;;;;;;;1.95;0.73;;;;;;;;;;4996654;28;20214;-74
2022/09/02 04:14:24;;;;;;;1.02;0.93;;;;;;;;;;4994262;28;20194;-74
2022/09/02 04:16:49;;;;;;;0.95;0.68;;;;;;;;;;5014402;28;20182;-74
2022/09/02 04:19:14;;;;;;;1.92;0.80;;;;;;;;;;5015801;28;20251;-73
2022/09/02 04:21:40;;;;;;;2.15;1.23;;;;;;;;;;5021912;28;20175;-74
2022/09/02 04:24:08;;;;;;;0.70;0.70;;;;;;;;;;5014622;28;20183;-74
2022/09/02 04:26:33;;;;;;;1.13;0.80;;;;;;;;;;5006447;28;20219;-74
2022/09/02 04:28:58;;;;;;;1.00;0.68;;;;;;;;;;5001398;28;20178;-74
2022/09/02 04:31:24;;;;;;;1.27;0.80;;;;;;;;;;5013676;28;20171;-74
2022/09/02 04:33:50;;;;;;;1.85;0.90;;;;;;;;;;5013988;28;20201;-74
2022/09/02 04:36:16;;;;;;;2.00;0.80;;;;;;;;;;5014326;28;20171;-74
2022/09/02 04:38:42;;;;;;;0.65;0.50;;;;;;;;;;5014052;28;20168;-72
2022/09/02 04:41:11;;;;;;;2.65;0.80;;;;;;;;;;5001300;28;20218;-74
2022/09/02 04:43:37;;;;;;;1.27;0.80;;;;;;;;;;5013979;28;20191;-75
2022/09/02 04:46:03;;;;;;;1.88;0.70;;;;;;;;;;5013650;28;20179;-73
2022/09/02 04:48:28;;;;;;;1.65;0.90;;;;;;;;;;5010848;28;20226;-73
2022/09/02 04:50:53;;;;;;;2.35;0.75;;;;;;;;;;5013223;28;20223;-73
2022/09/02 04:53:18;;;;;;;2.40;1.00;;;;;;;;;;5012921;28;20207;-73
2022/09/02 04:55:44;;;;;;;1.27;1.17;;;;;;;;;;5013305;28;20203;-73
2022/09/02 04:58:09;;;;;;;2.08;0.77;;;;;;;;;;5011577;28;20604;-73
2022/09/02 05:00:36;;;;;;;1.42;0.75;;;;;;;;;;5012999;28;20178;-73
2022/09/02 05:03:03;;;;;;;1.55;1.02;;;;;;;;;;5012288;28;20175;-73
2022/09/02 05:05:29;;;;;;;3.28;0.90;;;;;;;;;;5033270;22;20238;-70
2022/09/02 05:07:55;;;;;;;1.00;0.73;;;;;;;;;;5030982;28;20182;-69
2022/09/02 05:10:20;;;;;;;2.00;0.75;;;;;;;;;;5030950;28;20217;-67
2022/09/02 05:12:46;;;;;;;2.15;1.17;;;;;;;;;;5031830;28;20268;-68
2022/09/02 05:15:11;;;;;;;1.27;0.98;;;;;;;;;;5029749;28;20198;-70
2022/09/02 05:17:37;;;;;;;1.30;0.90;;;;;;;;;;5030622;28;20626;-69
2022/09/02 05:20:06;;;;;;;2.55;1.80;;;;;;;;;;5028667;28;20178;-68
2022/09/02 05:22:32;;;;;;;1.35;0.90;;;;;;;;;;5012287;28;20178;-69
2022/09/02 05:24:57;;;;;;;2.60;0.80;;;;;;;;;;5030883;28;20198;-69
2022/09/02 05:27:22;;;;;;;1.70;1.00;;;;;;;;;;5022850;28;20225;-69
2022/09/02 05:29:48;;;;;;;1.83;0.73;;;;;;;;;;5030675;28;20218;-69
2022/09/02 05:32:13;;;;;;;1.33;1.08;;;;;;;;;;5009794;28;20197;-69
2022/09/02 05:34:38;;;;;;;2.45;0.80;;;;;;;;;;5029107;28;20198;-69
2022/09/02 05:37:04;;;;;;;1.10;0.85;;;;;;;;;;5023279;28;20177;-69
2022/09/02 05:39:30;;;;;;;1.63;0.85;;;;;;;;;;5028278;28;20224;-69
2022/09/02 05:41:55;;;;;;;0.93;0.77;;;;;;;;;;5003333;28;20196;-69
2022/09/02 05:44:20;;;;;;;0.98;0.80;;;;;;;;;;5027301;28;20178;-68
2022/09/02 05:46:45;;;;;;;0.98;0.90;;;;;;;;;;5024050;28;20249;-67
2022/09/02 05:49:17;;;;;;;2.13;1.13;;;;;;;;;;5030337;28;20558;-67
2022/09/02 05:51:43;;;;;;;2.83;1.42;;;;;;;;;;5030745;28;20170;-67
2022/09/02 05:54:10;;;;;;;2.30;0.77;;;;;;;;;;5029724;28;20270;-67
2022/09/02 05:56:40;;;;;;;0.75;0.70;;;;;;;;;;5029941;28;20205;-67
2022/09/02 05:59:06;;;;;;;2.63;0.85;;;;;;;;;;5030786;28;20174;-68
2022/09/02 06:01:31;;;;;;;0.77;0.52;;;;;;;;;;5020474;28;20249;-68
2022/09/02 06:03:57;;;;;;;0.82;0.60;;;;;;;;;;5025268;28;20193;-68
2022/09/02 06:06:23;;;;;;;1.77;1.00;;;;;;;;;;5030485;28;20273;-67
2022/09/02 06:08:48;;;;;;;1.25;1.00;;;;;;;;;;5028637;28;20272;-67
2022/09/02 06:11:13;;;;;;;2.30;1.13;;;;;;;;;;5026805;28;20228;-67
2022/09/02 06:13:40;;;;;;;2.67;0.80;;;;;;;;;;5009792;28;20358;-70
2022/09/02 06:16:07;;;;;;;4.18;0.80;;;;;;;;;;5030404;28;20301;-70
2022/09/02 06:18:33;;;;;;;1.38;0.75;;;;;;;;;;5029955;28;20205;-69
2022/09/02 06:20:58;;;;;;;4.93;1.15;;;;;;;;;;5030342;28;20167;-68
2022/09/02 06:23:23;;;;;;;3.28;0.98;;;;;;;;;;5029604;28;20191;-68
2022/09/02 06:25:49;;;;;;;0.70;0.70;;;;;;;;;;5027788;28;20202;-68
2022/09/02 06:28:14;;;;;;;3.00;1.00;;;;;;;;;;5030342;28;20193;-69
2022/09/02 06:30:44;;;;;;;4.18;1.02;;;;;;;;;;5026382;28;20604;-69
2022/09/02 06:33:09;;;;;;;4.32;0.68;;;;;;;;;;5030332;28;20280;-69
2022/09/02 06:35:36;;;;;;;2.58;0.90;;;;;;;;;;5030449;28;20644;-69
2022/09/02 06:38:01;;;;;;;1.90;0.88;;;;;;;;;;5028776;28;20240;-69
2022/09/02 06:40:27;;;;;;;1.35;1.08;;;;;;;;;;5025023;28;20190;-69
2022/09/02 06:42:52;;;;;;;1.88;0.90;;;;;;;;;;5026768;28;20296;-69
2022/09/02 06:45:18;;;;;;;2.28;1.20;;;;;;;;;;5026342;28;20257;-69
2022/09/02 06:47:44;;;;;;;2.05;1.10;;;;;;;;;;5022105;28;20670;-69
2022/09/02 06:50:10;;;;;;;1.92;1.10;;;;;;;;;;5009053;28;20603;-69
2022/09/02 06:52:35;;;;;;;1.08;0.88;;;;;;;;;;5029032;28;20210;-69
2022/09/02 06:55:00;;;;;;;2.08;1.00;;;;;;;;;;5027952;28;20198;-67
2022/09/02 06:57:25;;;;;;;0.88;0.70;;;;;;;;;;5030876;28;20208;-68
2022/09/02 06:59:51;;;;;;;0.95;0.85;;;;;;;;;;5022183;28;20284;-68
2022/09/02 07:02:16;;;;;;;1.00;0.82;;;;;;;;;;5013059;28;20676;-67
2022/09/02 07:07:25;;;;;;;2.72;1.42;;;;;;;;;;5028564;28;20189;-68
2022/09/02 07:09:51;;;;;;;2.17;1.08;;;;;;;;;;5026333;28;20265;-68
2022/09/02 07:12:18;;;;;;;2.78;1.00;;;;;;;;;;5029898;28;20205;-68
2022/09/02 07:14:44;;;;;;;3.58;1.42;;;;;;;;;;5027009;28;20201;-68
2022/09/02 07:17:10;;;;;;;2.55;1.05;;;;;;;;;;5026373;28;20312;-68
2022/09/02 07:19:36;;;;;;;4.32;1.15;;;;;;;;;;5026944;28;20726;-68
2022/09/02 07:22:03;;;;;;;1.35;0.95;;;;;;;;;;5029697;28;20181;-68
2022/09/02 07:24:28;;;;;;;1.92;0.90;;;;;;;;;;5028290;28;20243;-68
2022/09/02 07:26:54;;;;;;;1.30;0.82;;;;;;;;;;5033474;28;20190;-68
2022/09/02 07:29:19;;;;;;;3.15;1.13;;;;;;;;;;5033993;28;20235;-68
2022/09/02 07:31:45;;;;;;;2.15;1.02;;;;;;;;;;5031273;28;20731;-68
2022/09/02 07:34:11;;;;;;;2.30;1.00;;;;;;;;;;5035642;28;20180;-68
2022/09/02 07:36:37;;;;;;;3.17;1.20;;;;;;;;;;5009054;28;23574;-70
2022/09/02 07:39:04;;;;;;;2.03;0.82;;;;;;;;;;5029856;28;20186;-69
2022/09/02 07:41:29;;;;;;;4.32;1.27;;;;;;;;;;5031711;28;20232;-68
2022/09/02 07:43:54;;;;;;;1.15;0.85;;;;;;;;;;5030323;28;20508;-68
2022/09/02 07:46:19;;;;;;;4.78;1.02;;;;;;;;;;5028220;28;20676;-69
2022/09/02 07:48:44;;;;;;;5.63;1.30;;;;;;;;;;5030811;28;20667;-69
2022/09/02 07:51:10;;;;;;;2.28;1.10;;;;;;;;;;5030535;28;20285;-68
2022/09/02 07:53:35;;;;;;;1.75;1.40;;;;;;;;;;5030021;28;20296;-68
2022/09/02 07:56:01;;;;;;;4.65;1.60;;;;;;;;;;5031842;28;20206;-68
2022/09/02 07:58:27;;;;;;;2.65;1.27;;;;;;;;;;5026578;28;20648;-68
2022/09/02 08:00:54;;;;;;;5.10;1.40;;;;;;;;;;5030243;28;20178;-68
2022/09/02 08:03:20;;;;;;;1.48;0.93;;;;;;;;;;5028468;28;20338;-68
2022/09/02 08:05:46;;;;;;;3.97;0.90;;;;;;;;;;5029619;28;20367;-67
2022/09/02 08:08:11;;;;;;;2.75;1.40;;;;;;;;;;5022847;28;20739;-69
2022/09/02 08:10:37;;;;;;;1.45;0.93;;;;;;;;;;5028713;28;20853;-68
2022/09/02 08:13:05;;;;;;;1.15;1.05;;;;;;;;;;5026556;28;20206;-68
2022/09/02 08:15:30;;;;;;;3.67;1.30;;;;;;;;;;5007449;28;20266;-68
2022/09/02 08:17:56;;;;;;;1.38;1.02;;;;;;;;;;5027871;28;20182;-68
2022/09/02 08:20:21;;;;;;;1.50;1.00;;;;;;;;;;5029206;28;20217;-68
2022/09/02 08:22:47;;;;;;;3.63;1.20;;;;;;;;;;5030755;28;20553;-68
2022/09/02 08:25:12;;;;;;;4.85;1.20;;;;;;;;;;5030674;28;20205;-68
2022/09/02 08:27:38;;;;;;;2.50;1.42;;;;;;;;;;5028463;28;20182;-68
2022/09/02 08:30:04;;;;;;;1.63;1.10;;;;;;;;;;5008203;28;20182;-69
2022/09/02 08:32:31;;;;;;;2.75;1.33;;;;;;;;;;5029077;28;20210;-69
2022/09/02 08:34:57;;;;;;;3.03;1.30;;;;;;;;;;5008870;28;20202;-69
2022/09/02 08:37:22;;;;;;;1.38;1.27;;;;;;;;;;5025247;28;20244;-69
2022/09/02 08:39:47;;;;;;;4.18;1.65;;;;;;;;;;5010955;28;20170;-69
2022/09/02 08:42:23;;;;;;;1.70;1.10;;;;;;;;;;5029534;28;20278;-68
2022/09/02 08:44:54;;;;;;;1.90;1.40;;;;;;;;;;5030339;28;20205;-68
2022/09/02 08:47:22;;;;;;;1.98;1.30;;;;;;;;;;5011701;28;20205;-69
2022/09/02 08:49:49;;;;;;;2.20;1.27;;;;;;;;;;5030669;28;20174;-68
2022/09/02 08:52:44;;;;;;;2.28;1.85;;;;;;;;;;5005938;28;20201;-69
2022/09/02 08:55:11;;;;;;;1.88;1.50;;;;;;;;;;5019336;28;20482;-68
2022/09/02 08:57:37;;;;;;;3.88;1.75;;;;;;;;;;5030963;28;20257;-68
2022/09/02 09:00:03;;;;;;;1.52;1.17;;;;;;;;;;5027996;28;20714;-68
2022/09/02 09:02:55;;;;;;;1.98;1.30;;;;;;;;;;5027433;28;20198;-69
2022/09/02 09:05:28;;;;;;;3.78;1.48;;;;;;;;;;5009859;28;20245;-70
2022/09/02 09:08:06;;;;;;;4.70;1.30;;;;;;;;;;5027363;28;20562;-69
2022/09/02 09:10:34;;;;;;;4.40;1.58;;;;;;;;;;5029950;28;20272;-69
2022/09/02 09:13:03;;;;;;;2.30;1.30;;;;;;;;;;5030733;28;20206;-69
2022/09/02 09:15:47;;;;;;;2.22;1.27;;;;;;;;;;5028467;28;20197;-69
2022/09/02 09:18:15;;;;;;;3.00;1.50;;;;;;;;;;5025049;28;20174;-69
2022/09/02 09:20:42;;;;;;;2.65;1.60;;;;;;;;;;5030157;28;20286;-68
2022/09/02 09:23:25;;;;;;;2.65;1.50;;;;;;;;;;5028990;28;20182;-69
2022/09/02 09:25:53;;;;;;;2.70;1.58;;;;;;;;;;5006161;28;20869;-68
2022/09/02 09:28:18;;;;;;;1.70;1.40;;;;;;;;;;5027317;28;20186;-69
2022/09/02 09:30:44;;;;;;;6.35;1.63;;;;;;;;;;5026898;28;20194;-69
2022/09/02 09:33:13;;;;;;;2.75;1.65;;;;;;;;;;5029981;28;20205;-68
2022/09/02 09:35:49;;;;;;;3.80;2.17;;;;;;;;;;5026888;28;21012;-69
2022/09/02 09:38:15;;;;;;;1.95;1.00;;;;;;;;;;5026437;28;20182;-68
2022/09/02 09:40:40;;;;;;;2.38;1.73;;;;;;;;;;5027853;28;20273;-69
2022/09/02 09:43:05;;;;;;;2.42;1.42;;;;;;;;;;5006500;28;20175;-68
2022/09/02 09:45:44;;;;;;;3.05;1.38;;;;;;;;;;5005788;28;20248;-69
2022/09/02 09:48:13;;;;;;;2.53;1.23;;;;;;;;;;5028027;28;20205;-68
2022/09/02 09:50:38;;;;;;;5.03;1.77;;;;;;;;;;5030451;28;20253;-68
2022/09/02 09:53:13;;;;;;;2.85;1.55;;;;;;;;;;5026532;28;20317;-69
2022/09/02 09:55:48;;;;;;;4.72;1.52;;;;;;;;;;5027448;28;20273;-69
2022/09/02 09:58:13;;;;;;;2.95;1.38;;;;;;;;;;5027884;28;20185;-69
2022/09/02 10:00:39;;;;;;;2.03;1.63;;;;;;;;;;5027248;28;20182;-69
2022/09/02 10:03:05;;;;;;;4.20;1.70;;;;;;;;;;5026834;28;20860;-68
2022/09/02 10:05:33;;;;;;;2.60;1.50;;;;;;;;;;5008208;28;20214;-69
2022/09/02 10:08:01;;;;;;;2.83;1.70;;;;;;;;;;5022237;28;20170;-69
2022/09/02 10:10:27;;;;;;;2.53;1.17;;;;;;;;;;5029687;28;20245;-68
2022/09/02 10:12:54;;;;;;;2.65;1.50;;;;;;;;;;5026778;28;20228;-68
2022/09/02 10:15:33;;;;;;;2.92;1.40;;;;;;;;;;5029684;28;20220;-69
2022/09/02 10:17:59;;;;;;;4.38;1.92;;;;;;;;;;5027196;28;20188;-69
2022/09/02 10:20:49;;;;;;;3.95;1.60;;;;;;;;;;5028345;28;20202;-69
2022/09/02 10:23:21;;;;;;;3.25;1.42;;;;;;;;;;5027629;28;20175;-68
2022/09/02 10:26:04;;;;;;;4.93;1.55;;;;;;;;;;5007782;28;20209;-69
2022/09/02 10:28:29;;;;;;;5.00;2.00;;;;;;;;;;5028354;28;20490;-69
2022/09/02 10:31:13;;;;;;;7.53;2.28;;;;;;;;;;5027908;28;20592;-69
2022/09/02 10:33:56;;;;;;;6.03;1.90;;;;;;;;;;5027932;28;20284;-69
2022/09/02 10:36:27;;;;;;;4.25;1.52;;;;;;;;;;5022375;28;20233;-68
2022/09/02 10:38:52;;;;;;;2.75;1.70;;;;;;;;;;5023019;28;20185;-69
2022/09/02 10:41:17;;;;;;;5.40;1.40;;;;;;;;;;5027035;28;20186;-69
2022/09/02 10:44:01;;;;;;;3.60;1.70;;;;;;;;;;5028567;28;20185;-68
2022/09/02 10:46:34;;;;;;;2.25;1.80;;;;;;;;;;5026937;28;20300;-68
2022/09/02 10:49:09;;;;;;;1.73;1.60;;;;;;;;;;5025252;28;20180;-69
2022/09/02 10:51:36;;;;;;;3.97;1.58;;;;;;;;;;5026020;28;20502;-69
2022/09/02 10:54:10;;;;;;;2.88;1.73;;;;;;;;;;5027043;28;20206;-69
2022/09/02 10:56:49;;;;;;;2.17;1.60;;;;;;;;;;4994903;28;20652;-69
2022/09/02 10:59:20;;;;;;;3.90;1.40;;;;;;;;;;5028192;28;20244;-69
2022/09/02 11:01:49;;;;;;;1.73;1.50;;;;;;;;;;5009861;28;20174;-69
2022/09/02 11:06:55;;;;;;;2.42;1.67;;;;;;;;;;5006980;28;20233;-70
2022/09/02 11:09:30;;;;;;;2.00;1.30;;;;;;;;;;5008719;28;20179;-71
2022/09/02 11:11:56;;;;;;;1.60;1.30;;;;;;;;;;5009460;28;20170;-72
2022/09/02 11:14:21;;;;;;;4.05;1.40;;;;;;;;;;5009269;28;20232;-71
2022/09/02 11:16:50;;;;;;;2.10;1.57;;;;;;;;;;5006719;28;20175;-71
2022/09/02 11:19:24;;;;;;;3.10;1.73;;;;;;;;;;5009243;28;20419;-71
2022/09/02 11:21:53;;;;;;;2.55;1.55;;;;;;;;;;5016876;28;20212;-72
2022/09/02 11:24:28;;;;;;;2.83;1.60;;;;;;;;;;5008862;28;20244;-71
2022/09/02 11:27:03;;;;;;;3.25;1.70;;;;;;;;;;5021487;28;20260;-71
2022/09/02 11:29:46;;;;;;;1.90;1.70;;;;;;;;;;5014178;28;20221;-71
2022/09/02 11:32:25;;;;;;;1.92;1.27;;;;;;;;;;5014907;28;20202;-71
2022/09/02 11:34:53;;;;;;;2.95;1.55;;;;;;;;;;5010457;28;20201;-72
2022/09/02 11:37:31;;;;;;;3.03;1.48;;;;;;;;;;5001048;28;20179;-71
2022/09/02 11:40:02;;;;;;;4.40;1.63;;;;;;;;;;5006060;28;20175;-71
2022/09/02 11:42:57;;;;;;;1.48;1.38;;;;;;;;;;5012777;28;20175;-69
2022/09/02 11:45:40;;;;;;;1.40;1.30;;;;;;;;;;5002197;28;20285;-71
2022/09/02 11:48:11;;;;;;;3.00;1.63;;;;;;;;;;5005745;28;20183;-69
2022/09/02 11:50:37;;;;;;;2.65;1.40;;;;;;;;;;5018110;28;20218;-68
2022/09/02 11:53:21;;;;;;;2.22;1.58;;;;;;;;;;5014530;28;20191;-71
2022/09/02 11:55:50;;;;;;;3.90;1.50;;;;;;;;;;5002647;28;20199;-68
2022/09/02 11:58:34;;;;;;;1.67;1.10;;;;;;;;;;5006985;28;20175;-69
2022/09/02 12:01:03;;;;;;;3.00;1.52;;;;;;;;;;5007384;28;20188;-68
2022/09/02 12:03:30;;;;;;;4.43;2.03;;;;;;;;;;5013675;28;20265;-69
2022/09/02 12:06:21;;;;;;;2.70;1.55;;;;;;;;;;5017280;28;20214;-68
2022/09/02 12:08:47;;;;;;;2.75;1.10;;;;;;;;;;5012076;28;20692;-69
2022/09/02 12:11:31;;;;;;;1.15;1.00;;;;;;;;;;5011365;28;20182;-69
2022/09/02 12:13:57;;;;;;;1.75;1.02;;;;;;;;;;5019403;28;20229;-68
2022/09/02 12:16:22;;;;;;;2.97;1.20;;;;;;;;;;5010349;28;20577;-71
2022/09/02 12:18:52;;;;;;;3.13;1.30;;;;;;;;;;5009683;28;20183;-71
2022/09/02 12:21:19;;;;;;;1.98;1.25;;;;;;;;;;5011568;28;20432;-71
2022/09/02 12:23:47;;;;;;;1.45;1.20;;;;;;;;;;5010547;28;20182;-69
2022/09/02 12:26:12;;;;;;;4.57;1.20;;;;;;;;;;5014338;28;20195;-69
2022/09/02 12:28:38;;;;;;;2.83;1.20;;;;;;;;;;5014088;28;20186;-69
2022/09/02 12:31:08;;;;;;;2.83;1.10;;;;;;;;;;5011932;28;20189;-69
2022/09/02 12:33:33;;;;;;;1.60;1.13;;;;;;;;;;5008213;28;20212;-68
2022/09/02 12:35:59;;;;;;;2.30;1.10;;;;;;;;;;5009139;28;20290;-69
2022/09/02 12:38:24;;;;;;;1.63;1.17;;;;;;;;;;5011002;28;20231;-69
2022/09/02 12:41:04;;;;;;;1.48;1.38;;;;;;;;;;5018737;28;20180;-69
2022/09/02 12:43:35;;;;;;;1.17;0.90;;;;;;;;;;5012643;28;20195;-69
2022/09/02 12:46:19;;;;;;;1.20;0.95;;;;;;;;;;5014091;28;20547;-70
2022/09/02 12:48:49;;;;;;;1.83;1.20;;;;;;;;;;5019455;28;20262;-70
2022/09/02 12:51:34;;;;;;;2.75;1.02;;;;;;;;;;5014350;28;20261;-69
2022/09/02 12:54:00;;;;;;;1.20;1.10;;;;;;;;;;5007850;28;20444;-70
2022/09/02 12:56:25;;;;;;;2.83;1.33;;;;;;;;;;5010127;28;20772;-71
2022/09/02 12:58:52;;;;;;;3.10;1.07;;;;;;;;;;5014419;28;20183;-71
2022/09/02 13:01:20;;;;;;;1.30;1.10;;;;;;;;;;5009816;28;20433;-70
2022/09/02 13:03:48;;;;;;;1.90;1.10;;;;;;;;;;5011915;28;20214;-70
2022/09/02 13:06:36;;;;;;;2.85;1.20;;;;;;;;;;5009419;28;21225;-71
2022/09/02 13:09:19;;;;;;;3.92;1.15;;;;;;;;;;5000773;28;20199;-68
2022/09/02 13:11:47;;;;;;;1.40;1.13;;;;;;;;;;5002094;28;20175;-69
2022/09/02 13:14:21;;;;;;;1.73;1.10;;;;;;;;;;5010391;28;20206;-69
2022/09/02 13:17:05;;;;;;;1.38;1.10;;;;;;;;;;5012526;28;20236;-71
2022/09/02 13:19:36;;;;;;;2.63;1.30;;;;;;;;;;5006838;28;20809;-69
2022/09/02 13:22:16;;;;;;;1.25;0.90;;;;;;;;;;5011038;28;20211;-69
2022/09/02 13:25:00;;;;;;;1.45;1.35;;;;;;;;;;5015287;28;20205;-70
2022/09/02 13:27:34;;;;;;;2.50;1.60;;;;;;;;;;5008066;28;20187;-69
2022/09/02 13:30:04;;;;;;;1.60;1.30;;;;;;;;;;5002317;28;20210;-70
2022/09/02 13:32:29;;;;;;;1.67;1.15;;;;;;;;;;5008546;28;20265;-70
2022/09/02 13:34:58;;;;;;;1.63;1.10;;;;;;;;;;5008989;28;20202;-70
2022/09/02 13:37:35;;;;;;;1.15;1.05;;;;;;;;;;5005697;28;20209;-71
2022/09/02 13:40:04;;;;;;;3.42;1.13;;;;;;;;;;5007960;28;20188;-71
2022/09/02 13:42:30;;;;;;;1.77;1.30;;;;;;;;;;5011507;28;20194;-71
2022/09/02 13:45:08;;;;;;;1.40;1.10;;;;;;;;;;5009735;28;20571;-70
2022/09/02 13:47:34;;;;;;;3.95;1.38;;;;;;;;;;5005551;28;20213;-70
2022/09/02 13:50:00;;;;;;;3.85;1.27;;;;;;;;;;5011679;28;20214;-70
2022/09/02 13:52:25;;;;;;;2.22;1.38;;;;;;;;;;5010581;28;20195;-70
2022/09/02 13:54:53;;;;;;;1.77;1.10;;;;;;;;;;5008298;28;20214;-70
2022/09/02 13:57:21;;;;;;;2.25;1.25;;;;;;;;;;5001992;28;20432;-69
2022/09/02 13:59:48;;;;;;;2.42;1.20;;;;;;;;;;5009110;28;20171;-70
2022/09/02 14:02:16;;;;;;;3.35;1.10;;;;;;;;;;5007795;28;20690;-71
2022/09/02 14:04:41;;;;;;;5.53;1.42;;;;;;;;;;5008451;28;20221;-70
2022/09/02 14:07:06;;;;;;;3.22;1.67;;;;;;;;;;5002579;28;20183;-70
2022/09/02 14:09:33;;;;;;;1.80;1.50;;;;;;;;;;5011465;28;20190;-70
2022/09/02 14:11:59;;;;;;;1.90;1.30;;;;;;;;;;5007223;28;20171;-71
2022/09/02 14:14:24;;;;;;;1.98;1.00;;;;;;;;;;5011579;28;20249;-70
2022/09/02 14:16:51;;;;;;;3.88;1.23;;;;;;;;;;5002540;28;20265;-70
2022/09/02 14:19:16;;;;;;;2.75;1.38;;;;;;;;;;5007473;28;20218;-70
2022/09/02 14:21:46;;;;;;;2.30;1.40;;;;;;;;;;5000288;28;20175;-71
2022/09/02 14:24:12;;;;;;;2.15;1.33;;;;;;;;;;5006909;28;20207;-69
2022/09/02 14:26:40;;;;;;;2.67;1.40;;;;;;;;;;5006920;28;20234;-71
2022/09/02 14:29:07;;;;;;;1.38;1.27;;;;;;;;;;5009262;28;20187;-70
2022/09/02 14:31:32;;;;;;;3.67;1.40;;;;;;;;;;5003119;28;20632;-70
2022/09/02 14:34:00;;;;;;;3.28;1.40;;;;;;;;;;5008159;28;20210;-70
2022/09/02 14:36:35;;;;;;;3.33;1.40;;;;;;;;;;5004018;28;20191;-70
2022/09/02 14:39:14;;;;;;;2.22;1.45;;;;;;;;;;5005193;28;20641;-71
2022/09/02 14:41:44;;;;;;;2.55;1.27;;;;;;;;;;5007811;28;20175;-70
2022/09/02 14:44:27;;;;;;;2.72;1.20;;;;;;;;;;5006911;28;20195;-71
2022/09/02 14:46:54;;;;;;;1.75;1.45;;;;;;;;;;5004300;28;20309;-71
2022/09/02 14:49:22;;;;;;;4.50;1.55;;;;;;;;;;5001950;28;20512;-70
2022/09/02 14:51:49;;;;;;;2.53;1.60;;;;;;;;;;5005935;28;20179;-69
2022/09/02 14:54:34;;;;;;;1.40;1.08;;;;;;;;;;5008877;28;20206;-70